PWSweather.com
Personal Weather Stations
Station Observations
REUBENS
Camas Prairie, Reubens, ID 83548

Camas PrairieReubens, ID 83548

Lat: 46.35417, Lon: -116.53167

Elevation: 3480

Station Type: Davis VantagePro 2

http://www.theobrienranch.com/wx/wx.htm

High Low Average
Temperature 48.1°F8.9°F 37.2°F2.9°F 41.5°F5.3°F
Dew Point 39.5°F4.2°F 32.1°F0.1°F 36.1°F2.3°F
Winds 10.4 mph W16.7 mph W Calm Calm 3.3 mph 5.3 mph
Wind Gusts 12.7 mph20.4 mph -- 4.2 mph6.8 mph
Humidity 94% 65% 81%
Pressure 30.48 in1032.20 in 30.35 in1027.80 in -
Precipitation 0.12 in3.00 in - -
Hour Temp Dew Point Humidity Winds Wind Gusts Pressure Precip Precip Rate Daily Precip Total
12:00 AM 42.8°F6.0°C 34.4°F1.3°C 72% Calm Calm -- 30.44 in1030.8 mb - 0.00 in0.0 mm 0.00 in0.0 mm
12:15 AM 43.2°F6.2°C 34.4°F1.3°C 71% 2.3 mph E3.7 kmh E 3.5 mph5.6 kmh 30.44 in1030.8 mb - 0.00 in0.0 mm 0.00 in0.0 mm
12:30 AM 41.0°F5.0°C 34.0°F1.1°C 76% Calm Calm -- 30.45 in1031.2 mb - 0.00 in0.0 mm 0.00 in0.0 mm
12:45 AM 39.6°F4.2°C 33.6°F0.9°C 79% Calm Calm -- 30.44 in1030.8 mb - 0.00 in0.0 mm 0.00 in0.0 mm
01:00 AM 40.0°F4.4°C 34.0°F1.1°C 79% 1.2 mph E1.9 kmh E 2.3 mph3.7 kmh 30.43 in1030.5 mb - 0.00 in0.0 mm 0.00 in0.0 mm
01:15 AM 39.3°F4.1°C 34.0°F1.1°C 81% Calm Calm -- 30.45 in1031.2 mb - 0.00 in0.0 mm 0.00 in0.0 mm
01:30 AM 39.2°F4.0°C 34.2°F1.2°C 82% Calm Calm -- 30.45 in1031.2 mb - 0.00 in0.0 mm 0.00 in0.0 mm
01:45 AM 39.3°F4.1°C 34.6°F1.4°C 83% Calm Calm 2.3 mph3.7 kmh 30.46 in1031.5 mb - 0.00 in0.0 mm 0.00 in0.0 mm
02:00 AM 38.5°F3.6°C 34.1°F1.2°C 84% Calm Calm -- 30.46 in1031.5 mb - 0.00 in0.0 mm 0.00 in0.0 mm
02:15 AM 39.1°F3.9°C 34.3°F1.3°C 83% 3.5 mph SE5.6 kmh SE 3.5 mph5.6 kmh 30.46 in1031.5 mb - 0.00 in0.0 mm 0.00 in0.0 mm
02:30 AM 39.4°F4.1°C 34.4°F1.3°C 82% 2.3 mph SE3.7 kmh SE 3.5 mph5.6 kmh 30.45 in1031.2 mb - 0.00 in0.0 mm 0.00 in0.0 mm
02:45 AM 39.4°F4.1°C 34.0°F1.1°C 81% 2.3 mph SE3.7 kmh SE 2.3 mph3.7 kmh 30.45 in1031.2 mb - 0.00 in0.0 mm 0.00 in0.0 mm
03:00 AM 39.4°F4.1°C 34.4°F1.3°C 82% Calm Calm 2.3 mph3.7 kmh 30.46 in1031.5 mb - 0.00 in0.0 mm 0.00 in0.0 mm
03:15 AM 39.4°F4.1°C 34.1°F1.2°C 81% Calm Calm -- 30.45 in1031.2 mb - 0.00 in0.0 mm 0.00 in0.0 mm
03:30 AM 39.9°F4.4°C 33.9°F1.1°C 79% Calm Calm -- 30.45 in1031.2 mb - 0.00 in0.0 mm 0.00 in0.0 mm
03:45 AM 41.1°F5.1°C 34.1°F1.2°C 76% 3.5 mph SE5.6 kmh SE 3.5 mph5.6 kmh 30.44 in1030.8 mb - 0.00 in0.0 mm 0.00 in0.0 mm
04:00 AM 39.9°F4.4°C 33.9°F1.1°C 79% Calm Calm -- 30.45 in1031.2 mb - 0.00 in0.0 mm 0.00 in0.0 mm
04:15 AM 40.4°F4.7°C 34.4°F1.3°C 79% Calm Calm -- 30.45 in1031.2 mb - 0.00 in0.0 mm 0.00 in0.0 mm
04:30 AM 39.4°F4.1°C 33.7°F0.9°C 80% 3.5 mph SE5.6 kmh SE 3.5 mph5.6 kmh 30.46 in1031.5 mb - 0.00 in0.0 mm 0.00 in0.0 mm
04:45 AM 40.5°F4.7°C 33.9°F1.1°C 77% 2.3 mph SE3.7 kmh SE 3.5 mph5.6 kmh 30.45 in1031.2 mb - 0.00 in0.0 mm 0.00 in0.0 mm
05:00 AM 39.6°F4.2°C 33.3°F0.7°C 78% 2.3 mph SE3.7 kmh SE 3.5 mph5.6 kmh 30.44 in1030.8 mb - 0.00 in0.0 mm 0.00 in0.0 mm
05:15 AM 38.6°F3.7°C 33.6°F0.9°C 82% 3.5 mph ESE5.6 kmh ESE 4.6 mph7.4 kmh 30.45 in1031.2 mb - 0.00 in0.0 mm 0.00 in0.0 mm
05:30 AM 37.9°F3.3°C 33.5°F0.8°C 84% 2.3 mph ESE3.7 kmh ESE 3.5 mph5.6 kmh 30.45 in1031.2 mb - 0.00 in0.0 mm 0.00 in0.0 mm
05:45 AM 38.3°F3.5°C 33.9°F1.1°C 84% 2.3 mph ESE3.7 kmh ESE 3.5 mph5.6 kmh 30.45 in1031.2 mb - 0.00 in0.0 mm 0.00 in0.0 mm
06:00 AM 37.3°F2.9°C 33.0°F0.6°C 84% 5.8 mph S9.3 kmh S 5.8 mph9.3 kmh 30.46 in1031.5 mb - 0.00 in0.0 mm 0.00 in0.0 mm
06:15 AM 37.7°F3.2°C 33.3°F0.7°C 84% 3.5 mph S5.6 kmh S 3.5 mph5.6 kmh 30.45 in1031.2 mb - 0.00 in0.0 mm 0.00 in0.0 mm
06:30 AM 38.1°F3.4°C 33.4°F0.8°C 83% 1.2 mph S1.9 kmh S 1.2 mph1.9 kmh 30.46 in1031.5 mb - 0.00 in0.0 mm 0.00 in0.0 mm
06:45 AM 37.2°F2.9°C 32.8°F0.4°C 84% Calm Calm 3.5 mph5.6 kmh 30.48 in1032.2 mb - 0.00 in0.0 mm 0.00 in0.0 mm
07:00 AM 37.7°F3.2°C 32.1°F0.1°C 80% 4.6 mph S7.4 kmh S 4.6 mph7.4 kmh 30.47 in1031.8 mb - 0.00 in0.0 mm 0.00 in0.0 mm
07:15 AM 39.6°F4.2°C 32.3°F0.2°C 75% 5.8 mph S9.3 kmh S 5.8 mph9.3 kmh 30.46 in1031.5 mb - 0.00 in0.0 mm 0.00 in0.0 mm
07:30 AM 39.9°F4.4°C 32.6°F0.3°C 75% 4.6 mph S7.4 kmh S 4.6 mph7.4 kmh 30.45 in1031.2 mb - 0.00 in0.0 mm 0.00 in0.0 mm
07:45 AM 39.4°F4.1°C 32.5°F0.3°C 76% Calm Calm -- 30.46 in1031.5 mb - 0.00 in0.0 mm 0.00 in0.0 mm
08:00 AM 39.3°F4.1°C 32.7°F0.4°C 77% Calm Calm 3.5 mph5.6 kmh 30.47 in1031.8 mb - 0.00 in0.0 mm 0.00 in0.0 mm
08:15 AM 38.7°F3.7°C 33.1°F0.6°C 80% 4.6 mph S7.4 kmh S 5.8 mph9.3 kmh 30.47 in1031.8 mb - 0.00 in0.0 mm 0.00 in0.0 mm
08:30 AM 38.7°F3.7°C 33.7°F0.9°C 82% 3.5 mph S5.6 kmh S 3.5 mph5.6 kmh 30.47 in1031.8 mb - 0.00 in0.0 mm 0.00 in0.0 mm
08:45 AM 39.6°F4.2°C 34.0°F1.1°C 80% 6.9 mph S11.1 kmh S 8.1 mph13.0 kmh 30.46 in1031.5 mb - 0.00 in0.0 mm 0.00 in0.0 mm
09:00 AM 40.7°F4.8°C 34.4°F1.3°C 78% 1.2 mph S1.9 kmh S 2.3 mph3.7 kmh 30.47 in1031.8 mb - 0.00 in0.0 mm 0.00 in0.0 mm
09:15 AM 41.0°F5.0°C 33.6°F0.9°C 75% 3.5 mph S5.6 kmh S 3.5 mph5.6 kmh 30.46 in1031.5 mb - 0.00 in0.0 mm 0.00 in0.0 mm
09:30 AM 42.3°F5.7°C 34.9°F1.6°C 75% 3.5 mph S5.6 kmh S 3.5 mph5.6 kmh 30.45 in1031.2 mb - 0.00 in0.0 mm 0.00 in0.0 mm
09:45 AM 43.4°F6.3°C 35.3°F1.8°C 73% 4.6 mph S7.4 kmh S 4.6 mph7.4 kmh 30.44 in1030.8 mb - 0.00 in0.0 mm 0.00 in0.0 mm
10:00 AM 44.0°F6.7°C 36.6°F2.6°C 75% 3.5 mph S5.6 kmh S 3.5 mph5.6 kmh 30.43 in1030.5 mb - 0.00 in0.0 mm 0.00 in0.0 mm
10:15 AM 44.3°F6.8°C 36.9°F2.7°C 75% 1.2 mph S1.9 kmh S 3.5 mph5.6 kmh 30.43 in1030.5 mb - 0.00 in0.0 mm 0.00 in0.0 mm
10:30 AM 44.7°F7.1°C 36.9°F2.7°C 74% 2.3 mph S3.7 kmh S 3.5 mph5.6 kmh 30.43 in1030.5 mb - 0.00 in0.0 mm 0.00 in0.0 mm
10:45 AM 45.4°F7.4°C 36.2°F2.3°C 70% 3.5 mph S5.6 kmh S 4.6 mph7.4 kmh 30.43 in1030.5 mb - 0.00 in0.0 mm 0.00 in0.0 mm
11:00 AM 45.9°F7.7°C 35.9°F2.2°C 68% 4.6 mph S7.4 kmh S 4.6 mph7.4 kmh 30.42 in1030.1 mb - 0.00 in0.0 mm 0.00 in0.0 mm
11:15 AM 46.1°F7.8°C 36.1°F2.3°C 68% 5.8 mph SSE9.3 kmh SSE 10.4 mph16.7 kmh 30.42 in1030.1 mb - 0.00 in0.0 mm 0.00 in0.0 mm
11:30 AM 46.9°F8.3°C 36.9°F2.7°C 68% 4.6 mph SSE7.4 kmh SSE 5.8 mph9.3 kmh 30.40 in1029.5 mb - 0.00 in0.0 mm 0.00 in0.0 mm
11:45 AM 47.5°F8.6°C 37.8°F3.2°C 69% 4.6 mph SSE7.4 kmh SSE 5.8 mph9.3 kmh 30.40 in1029.5 mb - 0.00 in0.0 mm 0.00 in0.0 mm
12:00 PM 48.1°F8.9°C 36.9°F2.7°C 65% 3.5 mph SSE5.6 kmh SSE 4.6 mph7.4 kmh 30.40 in1029.5 mb - 0.00 in0.0 mm 0.00 in0.0 mm
12:15 PM 47.7°F8.7°C 38.0°F3.3°C 69% 2.3 mph SSE3.7 kmh SSE 3.5 mph5.6 kmh 30.40 in1029.5 mb - 0.00 in0.0 mm 0.00 in0.0 mm
12:30 PM 47.3°F8.5°C 38.0°F3.3°C 70% 4.6 mph SSE7.4 kmh SSE 4.6 mph7.4 kmh 30.40 in1029.5 mb - 0.00 in0.0 mm 0.00 in0.0 mm
12:45 PM 46.7°F8.2°C 38.1°F3.4°C 72% 8.1 mph ESE13.0 kmh ESE 9.2 mph14.8 kmh 30.39 in1029.1 mb - 0.00 in0.0 mm 0.00 in0.0 mm
01:00 PM 45.4°F7.4°C 39.0°F3.9°C 78% 8.1 mph ESE13.0 kmh ESE 9.2 mph14.8 kmh 30.38 in1028.8 mb - 0.00 in0.0 mm 0.00 in0.0 mm
01:15 PM 43.8°F6.6°C 38.4°F3.6°C 81% 4.6 mph ESE7.4 kmh ESE 5.8 mph9.3 kmh 30.39 in1029.1 mb - 0.00 in0.0 mm 0.00 in0.0 mm
01:30 PM 44.1°F6.7°C 39.0°F3.9°C 82% 5.8 mph E9.3 kmh E 6.9 mph11.1 kmh 30.39 in1029.1 mb - 0.00 in0.0 mm 0.00 in0.0 mm
01:45 PM 44.0°F6.7°C 39.2°F4.0°C 83% 5.8 mph E9.3 kmh E 5.8 mph9.3 kmh 30.39 in1029.1 mb - 0.00 in0.0 mm 0.00 in0.0 mm
02:00 PM 44.0°F6.7°C 39.5°F4.2°C 84% 6.9 mph ESE11.1 kmh ESE 9.2 mph14.8 kmh 30.38 in1028.8 mb - 0.00 in0.0 mm 0.00 in0.0 mm
02:15 PM 43.3°F6.3°C 38.8°F3.8°C 84% 5.8 mph ESE9.3 kmh ESE 5.8 mph9.3 kmh 30.39 in1029.1 mb - 0.00 in0.0 mm 0.00 in0.0 mm
02:30 PM 43.1°F6.2°C 38.6°F3.7°C 84% 5.8 mph E9.3 kmh E 6.9 mph11.1 kmh 30.38 in1028.8 mb - 0.00 in0.0 mm 0.00 in0.0 mm
02:45 PM 42.7°F5.9°C 38.2°F3.4°C 84% 6.9 mph E11.1 kmh E 9.2 mph14.8 kmh 30.39 in1029.1 mb - 0.00 in0.0 mm 0.00 in0.0 mm
03:00 PM 42.6°F5.9°C 37.8°F3.2°C 83% 5.8 mph E9.3 kmh E 6.9 mph11.1 kmh 30.39 in1029.1 mb - 0.00 in0.0 mm 0.00 in0.0 mm
03:15 PM 42.4°F5.8°C 37.3°F2.9°C 82% 6.9 mph E11.1 kmh E 8.1 mph13.0 kmh 30.38 in1028.8 mb - 0.00 in0.0 mm 0.00 in0.0 mm
03:30 PM 42.4°F5.8°C 37.3°F2.9°C 82% 9.2 mph ESE14.8 kmh ESE 11.5 mph18.5 kmh 30.38 in1028.8 mb - 0.00 in0.0 mm 0.00 in0.0 mm
03:45 PM 42.4°F5.8°C 36.7°F2.6°C 80% 5.8 mph ESE9.3 kmh ESE 5.8 mph9.3 kmh 30.39 in1029.1 mb - 0.00 in0.0 mm 0.00 in0.0 mm
04:00 PM 42.7°F5.9°C 36.6°F2.6°C 79% 4.6 mph ESE7.4 kmh ESE 4.6 mph7.4 kmh 30.39 in1029.1 mb - 0.00 in0.0 mm 0.00 in0.0 mm
04:15 PM 42.7°F5.9°C 37.0°F2.8°C 80% 5.8 mph SE9.3 kmh SE 5.8 mph9.3 kmh 30.39 in1029.1 mb - 0.00 in0.0 mm 0.00 in0.0 mm
04:30 PM 42.6°F5.9°C 36.9°F2.7°C 80% 4.6 mph SE7.4 kmh SE 4.6 mph7.4 kmh 30.39 in1029.1 mb - 0.00 in0.0 mm 0.00 in0.0 mm
04:45 PM 42.3°F5.7°C 36.9°F2.7°C 81% 6.9 mph SE11.1 kmh SE 9.2 mph14.8 kmh 30.39 in1029.1 mb - 0.00 in0.0 mm 0.00 in0.0 mm
05:00 PM 42.7°F5.9°C 36.9°F2.7°C 80% 3.5 mph SE5.6 kmh SE 4.6 mph7.4 kmh 30.38 in1028.8 mb - 0.00 in0.0 mm 0.00 in0.0 mm
05:15 PM 42.5°F5.8°C 37.4°F3.0°C 82% 3.5 mph SE5.6 kmh SE 3.5 mph5.6 kmh 30.39 in1029.1 mb - 0.00 in0.0 mm 0.00 in0.0 mm
05:30 PM 43.9°F6.6°C 37.5°F3.1°C 78% 3.5 mph SE5.6 kmh SE 3.5 mph5.6 kmh 30.38 in1028.8 mb - 0.00 in0.0 mm 0.00 in0.0 mm
05:45 PM 43.4°F6.3°C 37.3°F2.9°C 79% Calm Calm 3.5 mph5.6 kmh 30.39 in1029.1 mb - 0.00 in0.0 mm 0.00 in0.0 mm
06:00 PM 43.9°F6.6°C 38.1°F3.4°C 80% 4.6 mph SE7.4 kmh SE 5.8 mph9.3 kmh 30.39 in1029.1 mb - 0.01 in0.3 mm 0.01 in0.3 mm
06:15 PM 42.9°F6.1°C 38.0°F3.3°C 83% 2.3 mph SE3.7 kmh SE 3.5 mph5.6 kmh 30.39 in1029.1 mb - 0.01 in0.3 mm 0.02 in0.5 mm
06:30 PM 42.9°F6.1°C 38.7°F3.7°C 85% 4.6 mph SSE7.4 kmh SSE 5.8 mph9.3 kmh 30.40 in1029.5 mb - 0.01 in0.3 mm 0.03 in0.8 mm
06:45 PM 42.3°F5.7°C 38.7°F3.7°C 87% 2.3 mph S3.7 kmh S 4.6 mph7.4 kmh 30.39 in1029.1 mb - 0.00 in0.0 mm 0.03 in0.8 mm
07:00 PM 42.5°F5.8°C 38.9°F3.8°C 87% 4.6 mph S7.4 kmh S 4.6 mph7.4 kmh 30.39 in1029.1 mb - 0.00 in0.0 mm 0.03 in0.8 mm
07:15 PM 42.3°F5.7°C 39.3°F4.1°C 89% 10.4 mph W16.7 kmh W 12.7 mph20.4 kmh 30.40 in1029.5 mb - 0.00 in0.0 mm 0.03 in0.8 mm
07:30 PM 41.2°F5.1°C 38.2°F3.4°C 89% Calm Calm 2.3 mph3.7 kmh 30.40 in1029.5 mb - 0.00 in0.0 mm 0.03 in0.8 mm
07:45 PM 40.7°F4.8°C 38.0°F3.3°C 90% 2.3 mph W3.7 kmh W 3.5 mph5.6 kmh 30.39 in1029.1 mb - 0.00 in0.0 mm 0.03 in0.8 mm
08:00 PM 40.2°F4.6°C 37.8°F3.2°C 91% Calm Calm 3.5 mph5.6 kmh 30.40 in1029.5 mb - 0.00 in0.0 mm 0.03 in0.8 mm
08:15 PM 40.1°F4.5°C 37.6°F3.1°C 91% Calm Calm -- 30.40 in1029.5 mb - 0.00 in0.0 mm 0.03 in0.8 mm
08:30 PM 39.5°F4.2°C 37.1°F2.8°C 91% 2.3 mph W3.7 kmh W 3.5 mph5.6 kmh 30.40 in1029.5 mb - 0.00 in0.0 mm 0.03 in0.8 mm
08:45 PM 39.6°F4.2°C 37.5°F3.1°C 92% Calm Calm 3.5 mph5.6 kmh 30.39 in1029.1 mb - 0.00 in0.0 mm 0.03 in0.8 mm
09:00 PM 40.3°F4.6°C 38.2°F3.4°C 92% 2.3 mph W3.7 kmh W 3.5 mph5.6 kmh 30.38 in1028.8 mb - 0.00 in0.0 mm 0.03 in0.8 mm
09:15 PM 40.7°F4.8°C 38.0°F3.3°C 90% 3.5 mph W5.6 kmh W 3.5 mph5.6 kmh 30.37 in1028.4 mb - 0.00 in0.0 mm 0.03 in0.8 mm
09:30 PM 40.4°F4.7°C 38.0°F3.3°C 91% 3.5 mph W5.6 kmh W 3.5 mph5.6 kmh 30.38 in1028.8 mb - 0.00 in0.0 mm 0.03 in0.8 mm
09:45 PM 40.8°F4.9°C 38.6°F3.7°C 92% Calm Calm -- 30.37 in1028.4 mb - 0.00 in0.0 mm 0.03 in0.8 mm
10:00 PM 41.2°F5.1°C 38.8°F3.8°C 91% 2.3 mph W3.7 kmh W 3.5 mph5.6 kmh 30.38 in1028.8 mb - 0.01 in0.3 mm 0.04 in1.0 mm
10:15 PM 41.4°F5.2°C 39.0°F3.9°C 91% 1.2 mph W1.9 kmh W 2.3 mph3.7 kmh 30.38 in1028.8 mb - 0.02 in0.5 mm 0.06 in1.5 mm
10:30 PM 40.7°F4.8°C 38.5°F3.6°C 92% 3.5 mph W5.6 kmh W 3.5 mph5.6 kmh 30.37 in1028.4 mb - 0.02 in0.5 mm 0.08 in2.0 mm
10:45 PM 40.5°F4.7°C 38.4°F3.6°C 92% 8.1 mph S13.0 kmh S 10.4 mph16.7 kmh 30.35 in1027.8 mb - 0.03 in0.8 mm 0.11 in2.8 mm
11:00 PM 40.6°F4.8°C 38.7°F3.7°C 93% 4.6 mph S7.4 kmh S 4.6 mph7.4 kmh 30.35 in1027.8 mb - 0.01 in0.3 mm 0.12 in3.0 mm
11:15 PM 40.4°F4.7°C 38.5°F3.6°C 93% 4.6 mph S7.4 kmh S 4.6 mph7.4 kmh 30.35 in1027.8 mb - 0.00 in0.0 mm 0.12 in3.0 mm
11:30 PM 39.9°F4.4°C 38.0°F3.3°C 93% 2.3 mph S3.7 kmh S 3.5 mph5.6 kmh 30.35 in1027.8 mb - 0.00 in0.0 mm 0.12 in3.0 mm
11:45 PM 39.7°F4.3°C 38.1°F3.4°C 94% 2.3 mph S3.7 kmh S 2.3 mph3.7 kmh 30.35 in1027.8 mb - 0.00 in0.0 mm 0.12 in3.0 mm